sensor_id;sensor_type;location;lat;lon;timestamp;pressure;altitude;pressure_sealevel;temperature;humidity
72162;BME280;60047;51.644;5.842;2022-12-10T00:01:09;100710.0;;;20.5;40.5
72162;BME280;60047;51.644;5.842;2022-12-10T00:06:16;100710.0;;;20.5;40.5
72162;BME280;60047;51.644;5.842;2022-12-10T00:11:10;100710.0;;;20.5;40.5
72162;BME280;60047;51.644;5.842;2022-12-10T00:16:09;100710.0;;;20.5;40.5
72162;BME280;60047;51.644;5.842;2022-12-10T00:21:09;100700.0;;;20.5;40.5
72162;BME280;60047;51.644;5.842;2022-12-10T00:26:10;100710.0;;;20.5;40.5
72162;BME280;60047;51.644;5.842;2022-12-10T00:31:09;100710.0;;;20.4;40.5
72162;BME280;60047;51.644;5.842;2022-12-10T00:36:10;100720.0;;;20.5;40.5
72162;BME280;60047;51.644;5.842;2022-12-10T00:41:08;100710.0;;;20.5;40.5
72162;BME280;60047;51.644;5.842;2022-12-10T00:46:07;100720.0;;;20.5;40.5
72162;BME280;60047;51.644;5.842;2022-12-10T00:51:15;100710.0;;;20.4;40.5
72162;BME280;60047;51.644;5.842;2022-12-10T00:56:08;100710.0;;;20.4;40.5
72162;BME280;60047;51.644;5.842;2022-12-10T01:01:08;100700.0;;;20.4;40.5
72162;BME280;60047;51.644;5.842;2022-12-10T01:06:07;100710.0;;;20.4;40.5
72162;BME280;60047;51.644;5.842;2022-12-10T01:11:08;100710.0;;;20.4;40.5
72162;BME280;60047;51.644;5.842;2022-12-10T01:16:09;100710.0;;;20.4;40.5
72162;BME280;60047;51.644;5.842;2022-12-10T01:21:14;100720.0;;;20.4;40.5
72162;BME280;60047;51.644;5.842;2022-12-10T01:26:09;100720.0;;;20.4;40.5
72162;BME280;60047;51.644;5.842;2022-12-10T01:31:09;100720.0;;;20.4;40.5
72162;BME280;60047;51.644;5.842;2022-12-10T01:36:10;100720.0;;;20.4;40.5
72162;BME280;60047;51.644;5.842;2022-12-10T01:41:13;100730.0;;;20.4;40.5
72162;BME280;60047;51.644;5.842;2022-12-10T01:46:07;100720.0;;;20.4;40.5
72162;BME280;60047;51.644;5.842;2022-12-10T01:51:07;100730.0;;;20.4;40.5
72162;BME280;60047;51.644;5.842;2022-12-10T01:56:09;100740.0;;;20.4;40.5
72162;BME280;60047;51.644;5.842;2022-12-10T02:01:10;100740.0;;;20.4;40.5
72162;BME280;60047;51.644;5.842;2022-12-10T02:06:20;100730.0;;;20.4;40.5
72162;BME280;60047;51.644;5.842;2022-12-10T02:11:28;100730.0;;;20.4;40.5
72162;BME280;60047;51.644;5.842;2022-12-10T02:16:12;100730.0;;;20.4;40.5
72162;BME280;60047;51.644;5.842;2022-12-10T02:21:10;100740.0;;;20.4;40.5
72162;BME280;60047;51.644;5.842;2022-12-10T02:26:11;100740.0;;;20.4;40.5
72162;BME280;60047;51.644;5.842;2022-12-10T02:31:09;100730.0;;;20.4;40.5
72162;BME280;60047;51.644;5.842;2022-12-10T02:36:09;100730.0;;;20.4;40.5
72162;BME280;60047;51.644;5.842;2022-12-10T02:41:23;100730.0;;;20.4;40.5
72162;BME280;60047;51.644;5.842;2022-12-10T02:46:07;100730.0;;;20.4;40.5
72162;BME280;60047;51.644;5.842;2022-12-10T02:51:07;100730.0;;;20.3;40.5
72162;BME280;60047;51.644;5.842;2022-12-10T02:56:13;100740.0;;;20.4;40.5
72162;BME280;60047;51.644;5.842;2022-12-10T03:01:39;100740.0;;;20.3;40.5
72162;BME280;60047;51.644;5.842;2022-12-10T03:06:18;100740.0;;;20.3;40.5
72162;BME280;60047;51.644;5.842;2022-12-10T03:11:14;100740.0;;;20.3;40.5
72162;BME280;60047;51.644;5.842;2022-12-10T03:16:08;100740.0;;;20.3;40.5
72162;BME280;60047;51.644;5.842;2022-12-10T03:21:08;100730.0;;;20.3;40.5
72162;BME280;60047;51.644;5.842;2022-12-10T03:26:08;100720.0;;;20.3;40.5
72162;BME280;60047;51.644;5.842;2022-12-10T03:31:12;100720.0;;;20.3;40.5
72162;BME280;60047;51.644;5.842;2022-12-10T03:36:08;100730.0;;;20.3;40.5
72162;BME280;60047;51.644;5.842;2022-12-10T03:41:08;100730.0;;;20.4;40.5
72162;BME280;60047;51.644;5.842;2022-12-10T03:46:08;100730.0;;;20.4;40.5
72162;BME280;60047;51.644;5.842;2022-12-10T03:51:08;100740.0;;;20.4;40.5
72162;BME280;60047;51.644;5.842;2022-12-10T03:56:08;100740.0;;;20.4;40.5
72162;BME280;60047;51.644;5.842;2022-12-10T04:01:08;100740.0;;;20.4;40.5
72162;BME280;60047;51.644;5.842;2022-12-10T04:06:10;100750.0;;;20.4;40.5
72162;BME280;60047;51.644;5.842;2022-12-10T04:11:09;100750.0;;;20.4;40.5
72162;BME280;60047;51.644;5.842;2022-12-10T04:16:08;100750.0;;;20.4;40.5
72162;BME280;60047;51.644;5.842;2022-12-10T04:21:08;100740.0;;;20.4;40.5
72162;BME280;60047;51.644;5.842;2022-12-10T04:26:08;100760.0;;;20.4;40.5
72162;BME280;60047;51.644;5.842;2022-12-10T04:31:08;100760.0;;;20.4;40.5
72162;BME280;60047;51.644;5.842;2022-12-10T04:36:08;100760.0;;;20.4;40.5
72162;BME280;60047;51.644;5.842;2022-12-10T04:41:08;100770.0;;;20.4;40.5
72162;BME280;60047;51.644;5.842;2022-12-10T04:46:08;100760.0;;;20.4;40.5
72162;BME280;60047;51.644;5.842;2022-12-10T04:56:08;100760.0;;;20.4;40.5
72162;BME280;60047;51.644;5.842;2022-12-10T05:01:10;100760.0;;;20.4;40.5
72162;BME280;60047;51.644;5.842;2022-12-10T05:06:09;100770.0;;;20.4;40.5
72162;BME280;60047;51.644;5.842;2022-12-10T05:11:10;100770.0;;;20.4;40.5
72162;BME280;60047;51.644;5.842;2022-12-10T05:16:10;100780.0;;;20.4;40.5
72162;BME280;60047;51.644;5.842;2022-12-10T05:21:11;100770.0;;;20.4;40.5
72162;BME280;60047;51.644;5.842;2022-12-10T05:26:10;100780.0;;;20.4;40.5
72162;BME280;60047;51.644;5.842;2022-12-10T05:31:13;100770.0;;;20.4;40.5
72162;BME280;60047;51.644;5.842;2022-12-10T05:36:12;100780.0;;;20.4;40.5
72162;BME280;60047;51.644;5.842;2022-12-10T05:41:11;100770.0;;;20.4;40.5
72162;BME280;60047;51.644;5.842;2022-12-10T05:46:12;100780.0;;;20.4;40.5
72162;BME280;60047;51.644;5.842;2022-12-10T05:51:10;100770.0;;;20.4;40.5
72162;BME280;60047;51.644;5.842;2022-12-10T05:56:10;100770.0;;;20.4;40.5
72162;BME280;60047;51.644;5.842;2022-12-10T06:01:12;100780.0;;;20.4;40.5
72162;BME280;60047;51.644;5.842;2022-12-10T06:06:09;100780.0;;;20.4;40.5
72162;BME280;60047;51.644;5.842;2022-12-10T06:11:10;100790.0;;;20.4;40.5
72162;BME280;60047;51.644;5.842;2022-12-10T06:16:13;100780.0;;;20.4;40.5
72162;BME280;60047;51.644;5.842;2022-12-10T06:21:12;100770.0;;;20.4;40.5
72162;BME280;60047;51.644;5.842;2022-12-10T06:26:10;100780.0;;;20.4;40.5
72162;BME280;60047;51.644;5.842;2022-12-10T06:31:08;100780.0;;;20.4;40.5
72162;BME280;60047;51.644;5.842;2022-12-10T06:36:10;100790.0;;;20.4;40.0
72162;BME280;60047;51.644;5.842;2022-12-10T06:41:13;100780.0;;;20.4;40.0
72162;BME280;60047;51.644;5.842;2022-12-10T06:46:10;100780.0;;;20.4;40.5
72162;BME280;60047;51.644;5.842;2022-12-10T06:51:09;100790.0;;;20.4;40.5
72162;BME280;60047;51.644;5.842;2022-12-10T06:56:12;100800.0;;;20.4;40.0
72162;BME280;60047;51.644;5.842;2022-12-10T07:01:10;100800.0;;;20.4;40.0
72162;BME280;60047;51.644;5.842;2022-12-10T07:06:10;100800.0;;;20.4;40.0
72162;BME280;60047;51.644;5.842;2022-12-10T07:11:11;100810.0;;;20.4;40.0
72162;BME280;60047;51.644;5.842;2022-12-10T07:16:13;100810.0;;;20.4;40.0
72162;BME280;60047;51.644;5.842;2022-12-10T07:21:12;100820.0;;;20.4;40.0
72162;BME280;60047;51.644;5.842;2022-12-10T07:26:08;100830.0;;;20.4;40.0
72162;BME280;60047;51.644;5.842;2022-12-10T07:31:09;100840.0;;;20.4;40.0
72162;BME280;60047;51.644;5.842;2022-12-10T07:36:09;100840.0;;;20.4;40.0
72162;BME280;60047;51.644;5.842;2022-12-10T07:41:12;100850.0;;;20.4;40.0
72162;BME280;60047;51.644;5.842;2022-12-10T07:46:10;100860.0;;;20.4;40.0
72162;BME280;60047;51.644;5.842;2022-12-10T07:51:09;100840.0;;;20.4;40.0
72162;BME280;60047;51.644;5.842;2022-12-10T07:56:09;100850.0;;;20.4;40.0
72162;BME280;60047;51.644;5.842;2022-12-10T08:01:11;100860.0;;;20.4;40.0
72162;BME280;60047;51.644;5.842;2022-12-10T08:06:13;100860.0;;;20.4;40.0
72162;BME280;60047;51.644;5.842;2022-12-10T08:11:09;100860.0;;;20.4;40.0
72162;BME280;60047;51.644;5.842;2022-12-10T08:16:13;100860.0;;;20.4;40.0
72162;BME280;60047;51.644;5.842;2022-12-10T08:21:10;100880.0;;;20.4;40.0
72162;BME280;60047;51.644;5.842;2022-12-10T08:26:10;100880.0;;;20.4;40.0
72162;BME280;60047;51.644;5.842;2022-12-10T08:31:10;100890.0;;;20.4;40.0
72162;BME280;60047;51.644;5.842;2022-12-10T08:36:11;100900.0;;;20.4;40.0
72162;BME280;60047;51.644;5.842;2022-12-10T08:41:10;100910.0;;;20.4;40.0
72162;BME280;60047;51.644;5.842;2022-12-10T08:46:09;100910.0;;;20.4;40.0
72162;BME280;60047;51.644;5.842;2022-12-10T08:51:11;100910.0;;;20.3;40.0
72162;BME280;60047;51.644;5.842;2022-12-10T08:56:08;100910.0;;;20.3;40.0
72162;BME280;60047;51.644;5.842;2022-12-10T09:01:10;100900.0;;;20.3;40.0
72162;BME280;60047;51.644;5.842;2022-12-10T09:06:11;100900.0;;;20.3;40.0
72162;BME280;60047;51.644;5.842;2022-12-10T09:11:10;100910.0;;;20.3;40.0
72162;BME280;60047;51.644;5.842;2022-12-10T09:16:09;100910.0;;;20.3;40.0
72162;BME280;60047;51.644;5.842;2022-12-10T09:21:11;100910.0;;;20.3;40.0
72162;BME280;60047;51.644;5.842;2022-12-10T09:26:10;100910.0;;;20.3;40.0
72162;BME280;60047;51.644;5.842;2022-12-10T09:31:10;100930.0;;;20.3;40.0
72162;BME280;60047;51.644;5.842;2022-12-10T09:36:10;100930.0;;;20.3;40.0
72162;BME280;60047;51.644;5.842;2022-12-10T09:41:14;100940.0;;;20.3;40.0
72162;BME280;60047;51.644;5.842;2022-12-10T09:46:17;100950.0;;;20.3;40.0
72162;BME280;60047;51.644;5.842;2022-12-10T09:51:10;100950.0;;;20.3;40.0
72162;BME280;60047;51.644;5.842;2022-12-10T09:56:14;100950.0;;;20.3;40.0
72162;BME280;60047;51.644;5.842;2022-12-10T10:01:12;100940.0;;;20.3;40.0
72162;BME280;60047;51.644;5.842;2022-12-10T10:06:10;100930.0;;;20.2;40.0
72162;BME280;60047;51.644;5.842;2022-12-10T10:11:11;100950.0;;;20.3;40.0
72162;BME280;60047;51.644;5.842;2022-12-10T10:16:18;100950.0;;;20.3;40.0
72162;BME280;60047;51.644;5.842;2022-12-10T10:21:22;100950.0;;;20.3;40.0
72162;BME280;60047;51.644;5.842;2022-12-10T10:26:09;100950.0;;;20.3;40.0
72162;BME280;60047;51.644;5.842;2022-12-10T10:31:19;100960.0;;;20.3;40.0
72162;BME280;60047;51.644;5.842;2022-12-10T10:36:09;100940.0;;;20.3;40.0
72162;BME280;60047;51.644;5.842;2022-12-10T10:41:12;100960.0;;;20.3;40.0
72162;BME280;60047;51.644;5.842;2022-12-10T10:46:14;100960.0;;;20.3;40.0
72162;BME280;60047;51.644;5.842;2022-12-10T10:51:17;100960.0;;;20.3;40.0
72162;BME280;60047;51.644;5.842;2022-12-10T10:56:13;100950.0;;;20.3;40.0
72162;BME280;60047;51.644;5.842;2022-12-10T11:01:09;100950.0;;;20.3;40.0
72162;BME280;60047;51.644;5.842;2022-12-10T11:06:09;100950.0;;;20.3;40.0
72162;BME280;60047;51.644;5.842;2022-12-10T11:11:12;100960.0;;;20.3;40.0
72162;BME280;60047;51.644;5.842;2022-12-10T11:16:22;100940.0;;;20.3;40.0
72162;BME280;60047;51.644;5.842;2022-12-10T11:21:20;100940.0;;;20.3;40.0
72162;BME280;60047;51.644;5.842;2022-12-10T11:26:19;100940.0;;;20.3;40.0
72162;BME280;60047;51.644;5.842;2022-12-10T11:31:32;100940.0;;;20.3;40.0
72162;BME280;60047;51.644;5.842;2022-12-10T11:36:53;100940.0;;;20.3;40.0
72162;BME280;60047;51.644;5.842;2022-12-10T11:41:49;100940.0;;;20.3;40.0
72162;BME280;60047;51.644;5.842;2022-12-10T11:47:38;100940.0;;;20.3;40.0
72162;BME280;60047;51.644;5.842;2022-12-10T11:52:16;100950.0;;;20.3;40.0
72162;BME280;60047;51.644;5.842;2022-12-10T11:57:17;100940.0;;;20.3;40.0
72162;BME280;60047;51.644;5.842;2022-12-10T12:01:59;100940.0;;;20.3;40.0
72162;BME280;60047;51.644;5.842;2022-12-10T12:07:57;100940.0;;;20.3;40.0
72162;BME280;60047;51.644;5.842;2022-12-10T12:13:08;100940.0;;;20.3;40.0
72162;BME280;60047;51.644;5.842;2022-12-10T12:16:27;100940.0;;;20.3;40.0
72162;BME280;60047;51.644;5.842;2022-12-10T12:21:11;100930.0;;;20.3;40.0
72162;BME280;60047;51.644;5.842;2022-12-10T12:26:19;100930.0;;;20.3;40.0
72162;BME280;60047;51.644;5.842;2022-12-10T12:31:18;100940.0;;;20.3;40.0
72162;BME280;60047;51.644;5.842;2022-12-10T12:36:12;100930.0;;;20.3;40.0
72162;BME280;60047;51.644;5.842;2022-12-10T12:41:16;100920.0;;;20.3;40.0
72162;BME280;60047;51.644;5.842;2022-12-10T12:46:13;100930.0;;;20.3;40.0
72162;BME280;60047;51.644;5.842;2022-12-10T12:51:17;100930.0;;;20.4;40.0
72162;BME280;60047;51.644;5.842;2022-12-10T12:56:21;100920.0;;;20.4;40.0
72162;BME280;60047;51.644;5.842;2022-12-10T13:01:28;100920.0;;;20.3;40.0
72162;BME280;60047;51.644;5.842;2022-12-10T13:06:12;100930.0;;;20.3;40.0
72162;BME280;60047;51.644;5.842;2022-12-10T13:11:29;100950.0;;;20.4;40.0
72162;BME280;60047;51.644;5.842;2022-12-10T13:16:46;100950.0;;;20.4;40.0
72162;BME280;60047;51.644;5.842;2022-12-10T13:21:31;100940.0;;;20.4;40.0
72162;BME280;60047;51.644;5.842;2022-12-10T13:26:23;100940.0;;;20.4;40.0
72162;BME280;60047;51.644;5.842;2022-12-10T13:31:22;100940.0;;;20.4;40.0
72162;BME280;60047;51.644;5.842;2022-12-10T13:36:09;100940.0;;;20.4;40.0
72162;BME280;60047;51.644;5.842;2022-12-10T13:41:10;100940.0;;;20.4;40.0
72162;BME280;60047;51.644;5.842;2022-12-10T13:46:26;100930.0;;;20.4;40.0
72162;BME280;60047;51.644;5.842;2022-12-10T13:51:12;100940.0;;;20.4;39.5
72162;BME280;60047;51.644;5.842;2022-12-10T13:56:29;100950.0;;;20.4;39.5
72162;BME280;60047;51.644;5.842;2022-12-10T14:01:15;100950.0;;;20.3;40.0
72162;BME280;60047;51.644;5.842;2022-12-10T14:06:19;100960.0;;;20.3;40.0
72162;BME280;60047;51.644;5.842;2022-12-10T14:11:19;100970.0;;;20.3;40.0
72162;BME280;60047;51.644;5.842;2022-12-10T14:16:10;100970.0;;;20.3;40.0
72162;BME280;60047;51.644;5.842;2022-12-10T14:21:12;100980.0;;;20.3;40.0
72162;BME280;60047;51.644;5.842;2022-12-10T14:26:13;100970.0;;;20.3;40.0
72162;BME280;60047;51.644;5.842;2022-12-10T14:31:12;100980.0;;;20.3;40.0
72162;BME280;60047;51.644;5.842;2022-12-10T14:36:15;100970.0;;;20.3;40.0
72162;BME280;60047;51.644;5.842;2022-12-10T14:41:12;100970.0;;;20.2;40.0
72162;BME280;60047;51.644;5.842;2022-12-10T14:46:16;100980.0;;;20.2;40.0
72162;BME280;60047;51.644;5.842;2022-12-10T14:51:13;100990.0;;;20.2;40.0
72162;BME280;60047;51.644;5.842;2022-12-10T14:56:14;100980.0;;;20.2;40.0
72162;BME280;60047;51.644;5.842;2022-12-10T15:01:12;100980.0;;;20.2;40.0
72162;BME280;60047;51.644;5.842;2022-12-10T15:06:09;100970.0;;;20.2;40.0
72162;BME280;60047;51.644;5.842;2022-12-10T15:11:14;100980.0;;;20.2;40.0
